メキシコシティ の空港の天気 - METARとTAF

メキシコ・シティ国際空港 ( MMMX / MEX ) - メキシコ メキシコシティ
飛行場実況気象(Metar)
観測時間05/26 10:47 CDT (05/26 15:47 UTC)
風向・風速東 2m/s
視程8050m
天気現象
少しの雲 雲底高度 6710m
気温22℃
湿度46%
気圧1028hPa
METARMMMX 261547Z 08004KT 5SM FEW220 22/10 A3036 NOSIG RMK 8/002 HZY AC
過去の天気等 Google飛行場航空写真 Wunderground天気予報

過去48時間のMETAR

飛行場予報(TAF)
発表時間: 5/26 05:30 CDT (5/26 10:30 UTC)
予報対象時間: 26日7時 CDT ~ 27日13時 CDT
風向・風速北東 2m/s
視程10km以上
全天の8割程度の雲 雲底高度 2,740m
26日8時 CDT ~ 26日12時 CDT に一時的に
視程6,440m
天気現象煙霧 煙
26日14時 CDT から
風向・風速北北東 5m/s
視程10km以上
全天の4割程度の雲 雲底高度 610m
全天の8割程度の雲 雲底高度 2,440m
26日18時 CDT から 確率 40% で
視程8,050m
天気現象弱い雷雨
全天の8割程度の積乱雲 雲底高度 610m
27日1時 CDT から
風向・風速南東 3m/s
視程10km以上
全天の4割程度の雲 雲底高度 760m
全天の4割程度の雲 雲底高度 2,440m
全天の8割程度の雲 雲底高度 6,710m
27日5時 CDT ~ 27日7時 CDT に徐々に
風向・風速北北東 3m/s
TAF MMMX 261030Z 2612/2718 05004KT P6SM BKN090 TX27/2621Z TN14/2612Z
TEMPO 2613/2617 4SM HZ FU
FM261900 03010KT P6SM SCT020 BKN080
PROB40 2623/2703 5SM -TSRA BKN020CB
FM270600 14005KT P6SM SCT025 SCT080 BKN220
BECMG 2710/2712 02005KT